Time;durP1;ratioP1;P1;durP2;ratioP2;P2;SDS_P1;SDS_P2;PMS_P1;PMS_P2;Temp;Humidity;BMP_temperature;BMP_pressure;BME280_temperature;BME280_humidity;BME280_pressure;Samples;Min_cycle;Max_cycle;Signal;HPM_P1;HPM_P2
2022/09/27 00:01:01;;;;;;;12.30;9.43;;;;;;;28.28;65.65;100567.31;5073615;28;70997;-43
2022/09/27 00:03:34;;;;;;;10.70;9.95;;;;;;;28.29;65.45;100565.44;5078149;28;66940;-41
2022/09/27 00:06:09;;;;;;;10.27;9.35;;;;;;;28.31;65.09;100579.56;5078493;28;70584;-42
2022/09/27 00:08:42;;;;;;;9.77;8.88;;;;;;;28.31;65.21;100587.66;5076632;28;67132;-42
2022/09/27 00:11:36;;;;;;;9.98;9.25;;;;;;;27.77;65.20;100523.97;5079023;27;70158;-43
2022/09/27 00:14:16;;;;;;;9.50;8.75;;;;;;;28.34;65.10;100603.41;5069280;28;67036;-42
2022/09/27 00:16:48;;;;;;;10.35;9.32;;;;;;;28.34;64.59;100587.22;5076562;28;70306;-42
2022/09/27 00:19:24;;;;;;;10.32;9.43;;;;;;;28.37;64.54;100597.59;5078183;28;67151;-42
2022/09/27 00:21:56;;;;;;;8.55;8.00;;;;;;;28.37;64.80;100594.88;5067349;28;71060;-42
2022/09/27 00:24:30;;;;;;;9.82;8.80;;;;;;;28.38;64.23;100591.13;5077348;27;66624;-41
2022/09/27 00:27:02;;;;;;;9.88;9.10;;;;;;;28.39;64.59;100592.81;5071762;28;70330;-44
2022/09/27 00:29:36;;;;;;;8.85;8.23;;;;;;;28.40;64.24;100589.06;5074699;28;66931;-42
2022/09/27 00:32:09;;;;;;;9.38;8.77;;;;;;;28.41;64.50;100596.13;5069627;28;70721;-42
2022/09/27 00:34:41;;;;;;;9.15;8.45;;;;;;;28.33;64.32;100582.03;5076608;27;66787;-41
2022/09/27 00:37:14;;;;;;;8.95;8.25;;;;;;;28.42;64.03;100602.38;5075628;28;70003;-41
2022/09/27 00:39:46;;;;;;;8.45;7.95;;;;;;;28.43;63.90;100610.25;5092822;27;66873;-42
2022/09/27 00:42:19;;;;;;;9.18;8.57;;;;;;;28.45;64.07;100623.56;5071368;27;70105;-42
2022/09/27 00:45:20;;;;;;;9.07;8.35;;;;;;;28.28;64.61;100634.75;5074825;28;66655;-40
2022/09/27 00:48:00;;;;;;;9.30;8.65;;;;;;;28.15;64.29;100596.16;5064039;28;70108;-42
2022/09/27 00:50:41;;;;;;;9.38;8.68;;;;;;;27.96;63.93;100558.22;5074823;28;66875;-42
2022/09/27 00:53:22;;;;;;;9.32;8.63;;;;;;;28.48;64.11;100653.63;5077044;27;70194;-42
2022/09/27 00:55:58;;;;;;;9.18;8.45;;;;;;;28.46;63.98;100644.91;5069710;28;66645;-41
2022/09/27 00:58:42;;;;;;;9.50;8.80;;;;;;;28.48;64.42;100652.81;5075976;28;70291;-41
2022/09/27 01:01:14;;;;;;;8.68;8.02;;;;;;;28.51;64.28;100661.31;5075137;28;66796;-41
2022/09/27 01:04:21;;;;;;;8.40;7.95;;;;;;;28.54;64.04;100664.63;5081284;28;71351;-42
2022/09/27 01:06:55;;;;;;;8.18;7.60;;;;;;;28.47;64.16;100660.09;5066396;28;66661;-41
2022/09/27 01:09:28;;;;;;;8.35;7.75;;;;;;;28.54;64.45;100672.72;5072878;28;70526;-42
2022/09/27 01:12:19;;;;;;;8.20;7.70;;;;;;;28.45;64.25;100686.44;5075492;28;66951;-42
2022/09/27 01:15:12;;;;;;;7.63;7.13;;;;;;;28.45;63.88;100689.13;5074996;28;70835;-41
2022/09/27 01:18:18;;;;;;;8.43;7.78;;;;;;;28.49;64.20;100695.75;5073080;28;66708;-42
2022/09/27 01:21:12;;;;;;;7.88;7.38;;;;;;;28.47;64.29;100703.25;5079374;28;70920;-41
2022/09/27 01:24:00;;;;;;;7.43;6.93;;;;;;;28.58;63.73;100698.25;5073696;28;66387;-42
2022/09/27 01:26:47;;;;;;;7.57;7.07;;;;;;;28.58;64.08;100709.03;5077320;28;70005;-41
2022/09/27 01:29:56;;;;;;;7.45;6.95;;;;;;;28.41;63.78;100674.34;5058970;28;66695;-42
2022/09/27 01:32:34;;;;;;;7.13;6.72;;;;;;;28.45;63.93;100682.91;5023023;28;69935;-41
2022/09/27 01:35:33;;;;;;;7.38;6.88;;;;;;;28.14;63.36;100632.25;5091042;27;66203;-42
2022/09/27 01:38:35;;;;;;;7.28;6.78;;;;;;;28.73;63.93;100715.06;5068754;28;70101;-42
2022/09/27 01:41:34;;;;;;;7.53;7.00;;;;;;;28.23;63.39;100653.41;5075652;28;66226;-42
2022/09/27 01:44:49;;;;;;;7.00;6.53;;;;;;;28.24;63.72;100629.97;5078255;27;70906;-42
2022/09/27 01:47:34;;;;;;;6.93;6.53;;;;;;;28.40;63.79;100658.38;5086894;27;66371;-43
2022/09/27 01:50:40;;;;;;;7.40;6.70;;;;;;;28.80;63.50;100723.97;5074460;28;70384;-41
2022/09/27 01:53:22;;;;;;;7.03;6.53;;;;;;;28.82;63.42;100727.28;5075905;28;66994;-42
2022/09/27 01:56:31;;;;;;;7.47;6.95;;;;;;;28.77;63.18;100713.59;5079244;28;68928;-41
2022/09/27 01:59:28;;;;;;;7.15;6.65;;;;;;;28.78;63.67;100707.16;5073535;28;66140;-42
2022/09/27 02:02:25;;;;;;;7.07;6.60;;;;;;;28.91;63.75;100719.78;5066715;28;70211;-41
2022/09/27 02:05:17;;;;;;;6.65;6.22;;;;;;;28.93;63.49;100723.94;5080575;28;67203;-43
2022/09/27 02:08:01;;;;;;;6.95;6.55;;;;;;;28.42;63.52;100630.19;5078600;27;70788;-42
2022/09/27 02:10:40;;;;;;;7.85;7.35;;;;;;;28.94;63.23;100704.00;5078069;28;67140;-42
2022/09/27 02:13:21;;;;;;;6.60;6.20;;;;;;;29.01;63.72;100713.97;5076070;28;69898;-42
2022/09/27 02:16:20;;;;;;;6.22;5.72;;;;;;;28.90;63.77;100713.56;5078147;28;65690;-41
2022/09/27 02:18:57;;;;;;;7.18;6.68;;;;;;;29.05;63.26;100699.03;5054061;28;70122;-41
2022/09/27 02:21:54;;;;;;;7.05;6.53;;;;;;;28.44;63.26;100620.00;5072834;28;67048;-41
2022/09/27 02:24:58;;;;;;;6.72;6.22;;;;;;;28.59;63.19;100629.75;5075369;28;70803;-41
2022/09/27 02:28:00;;;;;;;6.47;5.97;;;;;;;28.63;63.23;100636.38;5066872;28;66737;-42
2022/09/27 02:30:37;;;;;;;6.95;6.38;;;;;;;29.09;63.40;100684.06;5037024;28;70699;-42
2022/09/27 02:33:34;;;;;;;6.30;5.82;;;;;;;28.27;63.26;100540.53;5077219;28;66878;-41
2022/09/27 02:36:07;;;;;;;;;;;;;;;28.78;64.19;100690.97;5075400;28;69757;-44
2022/09/27 02:38:40;;;;;;;7.93;5.72;;;;;;;29.18;63.14;100688.19;5075477;28;67029;-41
2022/09/27 02:41:21;;;;;;;6.65;6.18;;;;;;;29.25;63.04;100682.75;5073682;28;70682;-42
2022/09/27 02:43:59;;;;;;;9.77;6.00;;;;;;;28.77;63.48;100600.22;5072580;28;66266;-41
2022/09/27 02:46:59;;;;;;;7.13;6.45;;;;;;;28.72;62.97;100594.63;5077131;28;70854;-41
2022/09/27 02:49:49;;;;;;;6.75;5.65;;;;;;;29.12;63.37;100656.63;5069204;28;66462;-42
2022/09/27 02:53:10;;;;;;;8.45;6.20;;;;;;;29.35;63.49;100673.13;5070971;28;70489;-42
2022/09/27 02:56:23;;;;;;;6.03;5.53;;;;;;;29.26;62.98;100669.03;5070476;28;66725;-41
2022/09/27 02:59:28;;;;;;;;;;;;;;;28.99;64.53;100662.03;5062503;28;70835;-42
2022/09/27 03:02:55;;;;;;;5.70;5.20;;;;;;;29.29;63.20;100665.06;5073055;28;67215;-40
2022/09/27 03:05:31;;;;;;;6.05;5.55;;;;;;;29.39;63.00;100652.75;5078906;28;70802;-42
2022/09/27 03:08:05;;;;;;;6.22;5.72;;;;;;;29.51;62.80;100662.88;5079108;28;66900;-42
2022/09/27 03:10:37;;;;;;;5.93;5.35;;;;;;;29.51;62.80;100649.38;5078577;27;70003;-42
2022/09/27 03:13:10;;;;;;;7.53;5.28;;;;;;;29.56;62.82;100657.63;5080005;28;67010;-44
2022/09/27 03:15:44;;;;;;;4.55;4.30;;;;;;;29.59;63.22;100651.81;5077294;28;69841;-41
2022/09/27 03:18:23;;;;;;;4.75;4.35;;;;;;;29.49;62.81;100624.44;5069564;27;66294;-43
2022/09/27 03:21:18;;;;;;;5.13;4.72;;;;;;;29.64;63.11;100638.50;5079311;28;70735;-41
2022/09/27 03:23:51;;;;;;;4.85;4.45;;;;;;;29.67;63.24;100637.22;5077244;28;67034;-42
2022/09/27 03:26:24;;;;;;;6.15;4.90;;;;;;;29.64;63.18;100621.44;5074362;27;70707;-43
2022/09/27 03:28:56;;;;;;;5.68;4.63;;;;;;;29.60;63.09;100612.94;5062518;28;66479;-43
2022/09/27 03:31:29;;;;;;;6.63;4.72;;;;;;;29.74;63.06;100622.63;5077296;28;70671;-42
2022/09/27 03:34:21;;;;;;;4.53;4.22;;;;;;;29.75;63.10;100613.47;5079388;28;66828;-42
2022/09/27 03:36:53;;;;;;;4.60;4.22;;;;;;;29.78;63.10;100613.06;5081403;28;70011;-42
2022/09/27 03:39:27;;;;;;;4.90;4.50;;;;;;;29.77;62.60;100610.56;5077208;28;66326;-42
2022/09/27 03:41:59;;;;;;;4.53;4.13;;;;;;;29.73;62.66;100593.13;5078829;28;70047;-42
2022/09/27 03:44:33;;;;;;;7.10;4.43;;;;;;;29.87;63.14;100610.91;5081757;27;66706;-42
2022/09/27 03:47:06;;;;;;;4.10;3.80;;;;;;;29.90;62.81;100605.06;5079096;28;70681;-45
2022/09/27 03:49:40;;;;;;;4.47;4.10;;;;;;;29.85;62.71;100591.34;5080739;28;66939;-42
2022/09/27 03:52:14;;;;;;;4.50;3.25;;;;;;;29.95;62.67;100590.84;5079910;28;70753;-42
2022/09/27 03:54:47;;;;;;;5.78;4.05;;;;;;;29.95;62.98;100586.28;5078300;28;66267;-44
2022/09/27 03:57:19;;;;;;;5.07;3.90;;;;;;;29.96;62.49;100585.22;5070475;28;71125;-43
2022/09/27 03:59:52;;;;;;;3.80;3.50;;;;;;;30.01;62.55;100584.56;5073555;28;66698;-44
2022/09/27 04:02:43;;;;;;;3.90;3.47;;;;;;;30.01;62.74;100573.75;5071754;28;71084;-42
2022/09/27 04:05:28;;;;;;;5.35;3.80;;;;;;;30.06;62.84;100571.19;5075044;27;67053;-42
2022/09/27 04:08:14;;;;;;;3.75;3.53;;;;;;;29.96;62.50;100547.38;5088944;27;70025;-43
2022/09/27 04:10:47;;;;;;;3.25;3.05;;;;;;;30.09;62.83;100565.38;5077189;28;66464;-45
2022/09/27 04:13:20;;;;;;;3.47;3.28;;;;;;;29.99;63.01;100543.41;5073269;28;69855;-41
2022/09/27 04:15:56;;;;;;;3.33;3.05;;;;;;;30.04;62.51;100541.69;5070878;28;67130;-41
2022/09/27 04:18:46;;;;;;;3.50;3.20;;;;;;;30.12;62.15;100543.28;5068690;28;71011;-41
2022/09/27 04:21:44;;;;;;;3.28;3.08;;;;;;;29.68;62.28;100464.03;5074704;28;66316;-42
2022/09/27 04:24:17;;;;;;;3.38;3.08;;;;;;;30.18;62.93;100536.97;5075388;28;69767;-42
2022/09/27 04:27:04;;;;;;;5.30;3.30;;;;;;;30.22;62.40;100535.47;5093335;27;66966;-42
2022/09/27 04:29:44;;;;;;;3.95;3.65;;;;;;;30.25;62.87;100532.31;5075043;28;70798;-46
2022/09/27 04:32:43;;;;;;;4.97;3.40;;;;;;;29.81;62.83;100455.78;5076231;28;66753;-44
2022/09/27 04:38:40;;;;;;;5.10;3.55;;;;;;;30.31;62.27;100518.97;5074137;28;66597;-41
2022/09/27 04:41:13;;;;;;;4.38;3.42;;;;;;;30.29;62.23;100494.84;5076455;28;70933;-41
2022/09/27 04:43:46;;;;;;;3.50;3.20;;;;;;;30.35;62.41;100512.06;5076266;28;66149;-43
2022/09/27 04:46:20;;;;;;;3.25;2.97;;;;;;;30.27;62.48;100486.94;5078784;28;70223;-42
2022/09/27 04:48:53;;;;;;;3.25;2.97;;;;;;;30.29;62.27;100478.63;5075357;28;66508;-45
2022/09/27 04:51:26;;;;;;;2.97;2.78;;;;;;;30.27;62.16;100473.41;5069138;28;70904;-44
2022/09/27 04:53:59;;;;;;;6.18;3.13;;;;;;;30.43;62.21;100484.69;5081733;27;66903;-42
2022/09/27 04:56:35;;;;;;;3.58;3.28;;;;;;;30.43;62.47;100473.88;5075926;28;70617;-47
2022/09/27 04:59:09;;;;;;;3.03;2.83;;;;;;;30.46;62.74;100478.81;5070542;28;66383;-46
2022/09/27 05:01:44;;;;;;;3.13;2.90;;;;;;;30.42;62.76;100456.81;5079033;28;71011;-42
2022/09/27 05:04:39;;;;;;;2.80;2.58;;;;;;;30.50;62.42;100452.94;5078054;27;67014;-44
2022/09/27 05:07:12;;;;;;;3.30;2.90;;;;;;;30.49;62.89;100443.19;5079262;28;70404;-43
2022/09/27 05:09:48;;;;;;;3.00;2.80;;;;;;;30.53;62.29;100436.25;5072783;28;66292;-42
2022/09/27 05:12:21;;;;;;;2.97;2.63;;;;;;;30.57;62.83;100442.88;5074177;28;70937;-43
2022/09/27 05:15:00;;;;;;;2.72;2.53;;;;;;;30.48;62.63;100406.34;5072661;28;66378;-43
2022/09/27 05:18:11;;;;;;;3.40;3.20;;;;;;;30.57;62.62;100407.69;5046857;28;70174;-46
2022/09/27 05:21:03;;;;;;;2.45;2.20;;;;;;;30.44;62.86;100378.09;5044093;28;67095;-41
2022/09/27 05:23:41;;;;;;;2.97;2.75;;;;;;;30.62;62.49;100396.16;5061856;28;70818;-43
2022/09/27 05:26:18;;;;;;;3.03;2.75;;;;;;;30.53;62.95;100376.69;5077777;28;66001;-46
2022/09/27 05:28:51;;;;;;;2.22;2.10;;;;;;;30.38;62.67;100336.53;5074618;28;70177;-43
2022/09/27 05:31:25;;;;;;;4.63;2.67;;;;;;;30.65;63.05;100385.69;5060704;28;67098;-42
2022/09/27 05:33:58;;;;;;;3.08;2.70;;;;;;;30.68;62.85;100387.13;5070927;28;70635;-46
2022/09/27 05:36:38;;;;;;;3.05;2.85;;;;;;;30.57;62.85;100347.31;5075907;27;66034;-41
2022/09/27 05:39:10;;;;;;;3.70;2.30;;;;;;;30.65;62.88;100347.81;5073245;28;71094;-45
2022/09/27 05:41:43;;;;;;;2.75;2.55;;;;;;;30.73;63.17;100366.41;5091224;27;66077;-48
2022/09/27 05:44:17;;;;;;;4.78;2.47;;;;;;;30.74;62.83;100353.69;5075629;28;70474;-42
2022/09/27 05:47:15;;;;;;;2.50;2.30;;;;;;;30.72;63.21;100337.69;5087999;27;66303;-44
2022/09/27 05:49:47;;;;;;;2.65;2.45;;;;;;;30.66;63.08;100327.78;5077182;27;70733;-43
2022/09/27 05:52:20;;;;;;;2.63;2.40;;;;;;;30.75;62.77;100330.16;5074101;27;66068;-42
2022/09/27 05:54:53;;;;;;;2.53;2.30;;;;;;;30.78;63.29;100324.28;5070441;28;70581;-46
2022/09/27 05:57:26;;;;;;;2.70;2.50;;;;;;;30.81;62.86;100313.00;5078329;28;66916;-47
2022/09/27 06:00:04;;;;;;;4.97;2.60;;;;;;;30.84;62.95;100315.25;5075179;27;70858;-43
2022/09/27 06:02:43;;;;;;;2.53;2.33;;;;;;;30.80;62.75;100300.53;5075980;28;67043;-43
2022/09/27 06:05:38;;;;;;;2.30;2.10;;;;;;;30.36;63.44;100227.69;5076201;28;69906;-46
2022/09/27 06:08:33;;;;;;;3.50;2.55;;;;;;;30.80;63.23;100303.25;5074200;28;66083;-43
2022/09/27 06:11:11;;;;;;;2.88;2.55;;;;;;;30.89;63.27;100299.13;5073687;28;70392;-42
2022/09/27 06:13:43;;;;;;;2.10;1.90;;;;;;;30.79;63.28;100288.03;5071871;28;66406;-43
2022/09/27 06:16:16;;;;;;;2.95;2.33;;;;;;;30.92;63.33;100307.63;5072568;28;70548;-43
2022/09/27 06:18:49;;;;;;;2.95;2.65;;;;;;;30.88;63.18;100297.47;5076787;28;67742;-43
2022/09/27 06:21:21;;;;;;;2.58;2.38;;;;;;;30.95;63.20;100298.19;5046565;28;69846;-44
2022/09/27 06:24:01;;;;;;;4.20;2.08;;;;;;;30.98;63.33;100297.72;5074309;28;66800;-42
2022/09/27 06:26:37;;;;;;;1.95;1.83;;;;;;;31.00;63.18;100292.06;5078140;27;71065;-43
2022/09/27 06:29:15;;;;;;;2.30;1.90;;;;;;;30.98;63.27;100286.91;5079638;27;66808;-45
2022/09/27 06:31:59;;;;;;;7.75;2.70;;;;;;;30.87;63.49;100255.19;5065500;28;70543;-42
2022/09/27 06:34:49;;;;;;;2.75;2.22;;;;;;;31.02;63.53;100271.00;5068804;28;67587;-43
2022/09/27 06:37:25;;;;;;;2.85;2.42;;;;;;;31.01;63.35;100256.63;5080076;28;70367;-43
2022/09/27 06:39:58;;;;;;;3.20;2.38;;;;;;;31.07;63.43;100258.38;5079062;28;66875;-42
2022/09/27 06:42:49;;;;;;;2.28;2.03;;;;;;;31.07;63.26;100247.56;5070262;28;70261;-42
2022/09/27 06:45:44;;;;;;;2.13;1.92;;;;;;;31.10;63.29;100257.09;5042124;27;66229;-41
2022/09/27 06:48:46;;;;;;;3.25;2.50;;;;;;;31.11;63.54;100243.28;5073730;28;70497;-42
2022/09/27 06:51:21;;;;;;;2.88;2.35;;;;;;;31.13;63.11;100235.75;5079825;28;66838;-43
2022/09/27 06:53:54;;;;;;;2.75;2.20;;;;;;;31.15;63.13;100232.81;5077620;28;71368;-42
2022/09/27 06:56:27;;;;;;;3.13;2.50;;;;;;;31.15;62.96;100222.81;5076352;27;66086;-42
2022/09/27 07:01:51;;;;;;;2.60;2.40;;;;;;;31.20;63.14;100229.38;5082384;28;65770;-41
2022/09/27 07:04:39;;;;;;;7.28;2.47;;;;;;;31.22;63.29;100211.00;5081126;28;70541;-43
2022/09/27 07:07:44;;;;;;;2.40;2.20;;;;;;;31.21;63.54;100206.66;5021634;28;66306;-43
2022/09/27 07:10:17;;;;;;;2.53;2.30;;;;;;;31.28;63.16;100220.88;5077149;28;69903;-42
2022/09/27 07:12:49;;;;;;;3.25;1.92;;;;;;;31.31;63.14;100209.56;5077793;28;66746;-41
2022/09/27 07:15:22;;;;;;;2.65;2.00;;;;;;;31.33;63.22;100212.88;5076087;28;70511;-42
2022/09/27 07:17:57;;;;;;;3.22;2.40;;;;;;;31.35;62.92;100205.34;5076419;28;66592;-43
2022/09/27 07:20:32;;;;;;;2.40;2.00;;;;;;;31.37;62.91;100208.63;5076758;28;70239;-41
2022/09/27 07:23:08;;;;;;;7.32;2.20;;;;;;;31.00;63.03;100143.09;5076440;27;66285;-42
2022/09/27 07:25:40;;;;;;;3.05;2.50;;;;;;;31.41;62.72;100211.72;5074657;28;70993;-41
2022/09/27 07:28:17;;;;;;;6.07;2.35;;;;;;;31.34;62.98;100192.84;5074014;28;66021;-43
2022/09/27 07:30:56;;;;;;;3.17;2.40;;;;;;;31.44;63.05;100197.69;5072676;28;70845;-41
2022/09/27 07:33:30;;;;;;;2.80;2.42;;;;;;;31.48;63.29;100198.84;5093487;27;66994;-46
2022/09/27 07:36:10;;;;;;;2.28;1.95;;;;;;;31.47;63.33;100198.00;5077164;28;69056;-43
2022/09/27 07:38:45;;;;;;;2.47;2.28;;;;;;;31.40;62.97;100189.22;5077092;28;65944;-43
2022/09/27 07:41:20;;;;;;;2.75;2.20;;;;;;;31.52;63.11;100198.13;5059413;28;70739;-42
2022/09/27 07:43:53;;;;;;;4.15;2.20;;;;;;;31.53;62.68;100186.19;5076098;27;66705;-43
2022/09/27 07:46:29;;;;;;;2.50;2.08;;;;;;;31.54;62.85;100185.16;5077845;27;71451;-42
2022/09/27 07:49:20;;;;;;;2.70;2.22;;;;;;;31.55;62.74;100184.09;5067910;28;66823;-42
2022/09/27 07:51:58;;;;;;;6.78;2.38;;;;;;;31.56;62.73;100169.44;5080066;27;70644;-42
2022/09/27 07:54:41;;;;;;;2.13;1.90;;;;;;;31.51;63.27;100165.81;5057260;28;66548;-47
2022/09/27 07:57:43;;;;;;;4.03;2.50;;;;;;;31.54;62.86;100165.38;5079324;28;69925;-43
2022/09/27 08:00:18;;;;;;;2.78;2.30;;;;;;;31.23;62.79;100107.84;5066900;28;66774;-42
2022/09/27 08:02:51;;;;;;;6.03;2.47;;;;;;;31.55;62.79;100162.41;5081051;28;70554;-42
2022/09/27 08:05:23;;;;;;;4.35;2.17;;;;;;;31.60;62.71;100172.53;5077854;28;65858;-42
2022/09/27 08:07:56;;;;;;;3.03;2.53;;;;;;;31.61;62.71;100174.97;5076341;28;69954;-43
2022/09/27 08:10:31;;;;;;;2.58;1.85;;;;;;;31.44;62.57;100138.88;5080944;28;66918;-44
2022/09/27 08:13:04;;;;;;;5.35;2.33;;;;;;;31.65;62.76;100177.19;5075189;28;70289;-43
2022/09/27 08:15:40;;;;;;;3.53;2.40;;;;;;;31.40;62.92;100126.88;5061395;28;65743;-48
2022/09/27 08:18:13;;;;;;;2.55;2.35;;;;;;;31.68;62.61;100176.72;5077763;28;70782;-43
2022/09/27 08:20:58;;;;;;;3.63;2.20;;;;;;;31.66;62.84;100173.44;5079884;28;66950;-42
2022/09/27 08:23:37;;;;;;;3.00;2.60;;;;;;;31.68;63.01;100171.28;5070117;28;70439;-42
2022/09/27 08:26:28;;;;;;;4.30;2.80;;;;;;;31.22;63.02;100099.94;5078030;28;67041;-44
2022/09/27 08:29:07;;;;;;;;;;;;;;;31.34;63.89;100168.44;5080040;28;70823;-45
2022/09/27 08:31:44;;;;;;;2.72;2.53;;;;;;;31.63;63.13;100168.50;5070527;27;66317;-41
2022/09/27 08:34:17;;;;;;;3.17;2.50;;;;;;;31.60;62.99;100167.91;5077313;27;70515;-42
2022/09/27 08:36:50;;;;;;;5.18;3.78;;;;;;;31.67;62.90;100170.47;5075585;28;66628;-42
2022/09/27 08:39:23;;;;;;;2.90;2.60;;;;;;;31.67;62.90;100169.66;5079996;28;70537;-43
2022/09/27 08:42:12;;;;;;;3.30;3.00;;;;;;;31.63;63.24;100163.09;5077820;28;67007;-42
2022/09/27 08:44:59;;;;;;;3.95;2.83;;;;;;;31.67;63.28;100170.47;5074274;28;70870;-47
2022/09/27 08:47:42;;;;;;;5.55;3.10;;;;;;;31.65;63.05;100177.19;5079523;28;66960;-42
2022/09/27 08:50:28;;;;;;;4.35;3.33;;;;;;;31.67;63.51;100177.78;5076259;28;70860;-42
2022/09/27 08:53:32;;;;;;;3.83;2.75;;;;;;;31.59;63.24;100174.41;5077919;28;66667;-43
2022/09/27 08:56:08;;;;;;;2.58;2.35;;;;;;;31.20;63.13;100093.91;5066483;28;70778;-42
2022/09/27 08:59:00;;;;;;;3.33;2.72;;;;;;;31.06;63.19;100088.78;5078892;28;65228;-43
2022/09/27 09:01:36;;;;;;;7.03;2.88;;;;;;;31.58;63.31;100161.91;5071023;28;70875;-43
2022/09/27 09:04:18;;;;;;;3.75;2.58;;;;;;;31.55;63.25;100165.09;5077406;28;66670;-43
2022/09/27 09:07:09;;;;;;;6.13;3.20;;;;;;;31.58;63.56;100191.72;5072702;27;70751;-43
2022/09/27 09:10:08;;;;;;;3.90;2.75;;;;;;;31.61;63.39;100182.28;5076336;27;67117;-43
2022/09/27 09:12:57;;;;;;;3.63;3.33;;;;;;;31.21;63.79;100122.69;5059163;27;69523;-42
2022/09/27 09:16:02;;;;;;;4.35;3.60;;;;;;;31.08;63.72;100135.41;5076583;27;66949;-43
2022/09/27 09:19:00;;;;;;;3.63;2.90;;;;;;;31.49;64.10;100252.81;5069756;28;70736;-42
2022/09/27 09:22:27;;;;;;;3.33;3.03;;;;;;;31.42;65.14;100238.56;5047184;27;66947;-42
2022/09/27 09:25:17;;;;;;;7.07;3.83;;;;;;;31.12;67.45;100238.69;5073209;27;70733;-46
2022/09/27 09:28:18;;;;;;;4.05;3.65;;;;;;;30.95;69.44;100235.88;5072650;28;67118;-41
2022/09/27 09:31:36;;;;;;;7.47;4.20;;;;;;;30.23;70.23;100138.66;5034043;28;70449;-41
2022/09/27 09:34:24;;;;;;;5.57;4.10;;;;;;;30.82;70.64;100228.03;5068124;28;66696;-44
2022/09/27 09:37:03;;;;;;;5.40;4.50;;;;;;;30.24;71.14;100145.69;5066910;27;69714;-43
2022/09/27 09:40:07;;;;;;;4.75;4.30;;;;;;;30.72;71.49;100229.38;5070625;28;66872;-42
2022/09/27 09:43:07;;;;;;;4.65;4.25;;;;;;;30.58;72.13;100238.78;5090687;27;71019;-44
2022/09/27 09:45:47;;;;;;;5.05;3.85;;;;;;;30.48;72.36;100208.78;5072915;28;67012;-42
2022/09/27 09:48:38;;;;;;;4.55;3.55;;;;;;;30.61;72.45;100227.50;5073820;28;71341;-43
2022/09/27 09:51:20;;;;;;;;;;;;;;;30.28;73.89;100223.47;5060528;28;66966;-46
2022/09/27 09:54:01;;;;;;;4.28;3.80;;;;;;;30.52;73.46;100228.91;5072110;28;70033;-42
2022/09/27 09:56:52;;;;;;;4.15;3.60;;;;;;;30.06;73.38;100160.09;5071847;28;67219;-43
2022/09/27 09:59:25;;;;;;;4.13;3.72;;;;;;;30.53;73.05;100246.78;5074818;28;70622;-41
2022/09/27 10:02:18;;;;;;;6.35;4.40;;;;;;;30.45;73.29;100250.66;5074046;28;65744;-43
2022/09/27 10:04:51;;;;;;;7.07;4.18;;;;;;;30.42;73.61;100239.47;5091129;27;70695;-44
2022/09/27 10:07:26;;;;;;;4.65;3.63;;;;;;;30.48;73.43;100250.22;5073448;27;66036;-42
2022/09/27 10:10:01;;;;;;;4.18;3.78;;;;;;;29.99;73.56;100191.81;5066655;27;69988;-43
2022/09/27 10:12:49;;;;;;;6.72;5.15;;;;;;;30.45;73.94;100276.88;5071713;28;66327;-45
2022/09/27 10:15:29;;;;;;;6.20;4.35;;;;;;;30.44;74.07;100291.47;5075478;28;70705;-42
2022/09/27 10:18:03;;;;;;;4.40;3.90;;;;;;;30.35;74.47;100288.28;5090452;27;65996;-42
2022/09/27 10:20:41;;;;;;;6.35;5.70;;;;;;;29.90;74.49;100214.84;5075585;28;70057;-42
2022/09/27 10:23:18;;;;;;;5.28;4.70;;;;;;;30.39;74.69;100299.47;5057148;28;66105;-41
2022/09/27 10:26:07;;;;;;;5.65;4.88;;;;;;;30.39;74.84;100296.75;5076378;28;71073;-42
2022/09/27 10:28:49;;;;;;;5.90;5.30;;;;;;;30.37;74.89;100274.50;5073688;28;65760;-41
2022/09/27 10:31:37;;;;;;;5.65;5.15;;;;;;;30.38;75.16;100287.81;5056470;28;71373;-42
2022/09/27 10:34:36;;;;;;;8.05;5.75;;;;;;;29.94;75.94;100222.25;5073480;28;66311;-41
2022/09/27 10:37:16;;;;;;;11.35;6.00;;;;;;;30.42;75.47;100293.59;5070904;28;70038;-46
2022/09/27 10:40:27;;;;;;;7.57;5.78;;;;;;;30.33;75.35;100300.41;5090589;27;66824;-43
2022/09/27 10:43:02;;;;;;;6.88;6.22;;;;;;;30.39;74.98;100304.88;5092301;27;71045;-46
2022/09/27 10:46:02;;;;;;;6.43;4.60;;;;;;;29.71;75.41;100200.56;5071618;28;66404;-46
2022/09/27 10:48:40;;;;;;;5.20;4.80;;;;;;;30.30;75.57;100300.84;5071087;28;70590;-43
2022/09/27 10:51:22;;;;;;;6.32;3.90;;;;;;;30.31;75.63;100306.03;5073530;28;67162;-44
2022/09/27 10:54:00;;;;;;;4.82;4.32;;;;;;;30.28;75.80;100314.59;5062268;28;70841;-46
2022/09/27 10:56:38;;;;;;;5.88;4.85;;;;;;;30.28;75.89;100320.88;5085250;27;66524;-46
2022/09/27 10:59:18;;;;;;;9.85;4.80;;;;;;;29.67;75.89;100227.22;5076005;28;70797;-47
2022/09/27 11:01:51;;;;;;;4.47;4.10;;;;;;;30.47;73.52;100323.50;5074646;28;65633;-43
2022/09/27 11:05:01;;;;;;;5.27;4.10;;;;;;;30.50;73.02;100333.84;5076572;28;70814;-41
2022/09/27 11:07:37;;;;;;;4.50;4.15;;;;;;;30.49;72.63;100326.81;5075396;28;67449;-42
2022/09/27 11:10:27;;;;;;;5.55;4.25;;;;;;;30.59;73.06;100351.44;5067017;28;70856;-46
2022/09/27 11:13:18;;;;;;;4.85;4.35;;;;;;;30.26;72.29;100285.09;5073174;28;66645;-44
2022/09/27 11:16:00;;;;;;;7.13;4.63;;;;;;;30.67;72.48;100343.00;5072625;28;70393;-42
2022/09/27 11:18:52;;;;;;;8.55;4.43;;;;;;;30.58;73.17;100347.06;5079565;28;66696;-43
2022/09/27 11:21:55;;;;;;;8.05;4.53;;;;;;;30.14;72.59;100284.16;5075167;28;69911;-42
2022/09/27 11:24:59;;;;;;;8.70;6.85;;;;;;;30.63;72.14;100366.16;5075764;28;66311;-42
2022/09/27 11:27:59;;;;;;;19.27;12.70;;;;;;;30.14;72.51;100292.28;5073095;28;70287;-45
2022/09/27 11:30:45;;;;;;;;;;;;;;;30.36;73.32;100364.88;5077828;28;66659;-45
2022/09/27 11:33:39;;;;;;;23.35;16.92;;;;;;;30.70;72.33;100361.47;5078556;28;70938;-44
2022/09/27 11:36:35;;;;;;;27.95;17.35;;;;;;;30.15;72.07;100282.31;5079688;28;67005;-45
2022/09/27 11:39:31;;;;;;;19.95;11.35;;;;;;;30.69;72.26;100380.63;5080130;28;70857;-46
2022/09/27 11:42:32;;;;;;;18.05;11.30;;;;;;;30.69;72.37;100381.47;5079397;28;66197;-46
2022/09/27 11:45:33;;;;;;;14.38;11.60;;;;;;;30.65;72.63;100385.69;5074596;28;70793;-45
2022/09/27 11:48:59;;;;;;;12.88;10.10;;;;;;;30.25;72.71;100309.66;5066574;28;67095;-44
2022/09/27 11:51:34;;;;;;;14.10;10.23;;;;;;;30.75;72.67;100382.41;5076138;28;71798;-43
2022/09/27 11:54:37;;;;;;;11.98;9.55;;;;;;;30.66;72.40;100381.94;5077451;28;66728;-45
2022/09/27 11:57:25;;;;;;;14.98;10.00;;;;;;;30.60;72.31;100355.78;5076763;28;70458;-45
2022/09/27 12:00:16;;;;;;;9.90;8.20;;;;;;;30.60;72.32;100385.56;5074780;28;66356;-45
2022/09/27 12:03:41;;;;;;;9.82;7.75;;;;;;;30.50;72.27;100385.28;5075416;28;70621;-44
2022/09/27 12:06:39;;;;;;;10.02;7.10;;;;;;;30.66;72.43;100402.75;5053838;28;66885;-44
2022/09/27 12:09:19;;;;;;;7.15;6.53;;;;;;;30.72;71.67;100397.25;5070971;28;70555;-44
2022/09/27 12:12:05;;;;;;;7.70;6.45;;;;;;;30.28;72.37;100347.91;5075150;28;67192;-44
2022/09/27 12:14:50;;;;;;;7.28;6.22;;;;;;;30.15;71.98;100331.81;5076707;28;70860;-44
2022/09/27 12:17:29;;;;;;;6.65;5.90;;;;;;;30.65;71.58;100407.34;5065360;28;66412;-43
2022/09/27 12:20:24;;;;;;;15.85;6.60;;;;;;;29.92;74.53;100347.91;5076066;28;70610;-44
2022/09/27 12:23:06;;;;;;;9.50;7.13;;;;;;;30.36;75.20;100429.81;5074411;28;66788;-46
2022/09/27 12:26:24;;;;;;;10.20;6.65;;;;;;;30.15;76.46;100423.81;5066129;28;70379;-44
2022/09/27 12:29:12;;;;;;;13.48;5.93;;;;;;;30.17;77.02;100427.13;5071894;28;67009;-45
2022/09/27 12:32:17;;;;;;;9.93;5.70;;;;;;;30.09;77.69;100423.84;5076030;28;70295;-45
2022/09/27 12:34:50;;;;;;;7.72;5.78;;;;;;;30.10;77.79;100426.34;5073104;28;66943;-42
2022/09/27 12:37:50;;;;;;;6.43;5.22;;;;;;;30.09;78.22;100435.53;5077696;28;71124;-43
2022/09/27 12:40:26;;;;;;;7.28;5.82;;;;;;;30.09;78.60;100423.84;5076703;28;66458;-43
2022/09/27 12:43:22;;;;;;;5.78;5.18;;;;;;;30.07;78.76;100437.63;5067658;28;70854;-42
2022/09/27 12:46:42;;;;;;;7.95;5.20;;;;;;;29.77;78.83;100405.91;5067588;28;66982;-43
2022/09/27 12:49:31;;;;;;;5.28;4.80;;;;;;;29.54;79.03;100348.97;5075665;28;70935;-44
2022/09/27 12:52:12;;;;;;;4.82;4.32;;;;;;;30.01;79.05;100414.19;5075618;28;67111;-44